sensor_id;sensor_type;location;lat;lon;timestamp;pressure;altitude;pressure_sealevel;temperature;humidity
10464;BME280;5279;42.048;24.638;2022-11-22T00:01:58;96813.00;;;9.04;84.39
10464;BME280;5279;42.048;24.638;2022-11-22T00:04:25;96828.72;;;9.31;83.29
10464;BME280;5279;42.048;24.638;2022-11-22T00:06:53;96834.56;;;9.43;82.32
10464;BME280;5279;42.048;24.638;2022-11-22T00:09:20;96837.47;;;9.57;81.22
10464;BME280;5279;42.048;24.638;2022-11-22T00:11:47;96840.34;;;9.72;80.25
10464;BME280;5279;42.048;24.638;2022-11-22T00:14:14;96841.03;;;9.82;78.99
10464;BME280;5279;42.048;24.638;2022-11-22T00:16:41;96843.88;;;9.80;79.37
10464;BME280;5279;42.048;24.638;2022-11-22T00:19:08;96849.56;;;9.94;78.29
10464;BME280;5279;42.048;24.638;2022-11-22T00:21:35;96844.94;;;9.96;77.00
10464;BME280;5279;42.048;24.638;2022-11-22T00:24:04;96842.72;;;9.83;77.81
10464;BME280;5279;42.048;24.638;2022-11-22T00:26:31;96857.38;;;9.69;78.16
10464;BME280;5279;42.048;24.638;2022-11-22T00:28:58;96858.88;;;9.46;80.52
10464;BME280;5279;42.048;24.638;2022-11-22T00:31:25;96858.03;;;9.46;80.56
10464;BME280;5279;42.048;24.638;2022-11-22T00:33:52;96856.63;;;9.33;81.43
10464;BME280;5279;42.048;24.638;2022-11-22T00:36:19;96856.63;;;9.08;83.67
10464;BME280;5279;42.048;24.638;2022-11-22T00:38:46;96859.81;;;8.94;84.56
10464;BME280;5279;42.048;24.638;2022-11-22T00:41:14;96861.94;;;8.72;86.77
10464;BME280;5279;42.048;24.638;2022-11-22T00:43:41;96861.50;;;8.59;88.52
10464;BME280;5279;42.048;24.638;2022-11-22T00:46:09;96857.66;;;8.54;90.54
10464;BME280;5279;42.048;24.638;2022-11-22T00:48:36;96862.53;;;8.66;89.11
10464;BME280;5279;42.048;24.638;2022-11-22T00:51:03;96871.88;;;8.78;91.06
10464;BME280;5279;42.048;24.638;2022-11-22T00:53:30;96852.88;;;8.93;88.25
10464;BME280;5279;42.048;24.638;2022-11-22T00:55:57;96861.16;;;8.98;86.79
10464;BME280;5279;42.048;24.638;2022-11-22T00:58:25;96858.97;;;9.11;86.23
10464;BME280;5279;42.048;24.638;2022-11-22T01:00:52;96862.34;;;9.21;81.88
10464;BME280;5279;42.048;24.638;2022-11-22T01:03:19;96862.97;;;9.15;83.77
10464;BME280;5279;42.048;24.638;2022-11-22T01:05:46;96868.25;;;9.15;85.43
10464;BME280;5279;42.048;24.638;2022-11-22T01:08:13;96860.28;;;8.71;85.65
10464;BME280;5279;42.048;24.638;2022-11-22T01:10:40;96866.84;;;8.50;86.70
10464;BME280;5279;42.048;24.638;2022-11-22T01:13:07;96857.31;;;8.39;88.27
10464;BME280;5279;42.048;24.638;2022-11-22T01:15:35;96871.41;;;8.30;90.08
10464;BME280;5279;42.048;24.638;2022-11-22T01:18:02;96874.03;;;8.03;93.08
10464;BME280;5279;42.048;24.638;2022-11-22T01:20:29;96874.22;;;7.92;94.63
10464;BME280;5279;42.048;24.638;2022-11-22T01:22:56;96873.72;;;7.79;96.80
10464;BME280;5279;42.048;24.638;2022-11-22T01:25:23;96879.00;;;7.79;97.29
10464;BME280;5279;42.048;24.638;2022-11-22T01:27:50;96874.47;;;7.61;100.00
10464;BME280;5279;42.048;24.638;2022-11-22T01:30:17;96875.31;;;7.62;100.00
10464;BME280;5279;42.048;24.638;2022-11-22T01:32:45;96860.44;;;7.70;100.00
10464;BME280;5279;42.048;24.638;2022-11-22T01:35:12;96860.41;;;7.80;98.42
10464;BME280;5279;42.048;24.638;2022-11-22T01:37:39;96863.88;;;7.81;98.39
10464;BME280;5279;42.048;24.638;2022-11-22T01:40:08;96871.19;;;7.87;98.04
10464;BME280;5279;42.048;24.638;2022-11-22T01:42:41;96858.59;;;7.81;97.04
10464;BME280;5279;42.048;24.638;2022-11-22T01:45:39;96859.72;;;7.78;95.76
10464;BME280;5279;42.048;24.638;2022-11-22T01:48:17;96860.53;;;7.79;96.42
10464;BME280;5279;42.048;24.638;2022-11-22T01:50:48;96865.56;;;7.72;94.37
10464;BME280;5279;42.048;24.638;2022-11-22T01:53:20;96856.72;;;7.63;90.20
10464;BME280;5279;42.048;24.638;2022-11-22T01:55:49;96854.78;;;7.65;92.22
10464;BME280;5279;42.048;24.638;2022-11-22T01:58:17;96861.69;;;7.66;90.58
10464;BME280;5279;42.048;24.638;2022-11-22T02:00:45;96861.81;;;7.75;90.75
10464;BME280;5279;42.048;24.638;2022-11-22T02:03:17;96839.25;;;7.62;94.45
10464;BME280;5279;42.048;24.638;2022-11-22T02:05:45;96855.00;;;7.72;96.86
10464;BME280;5279;42.048;24.638;2022-11-22T02:08:18;96857.50;;;7.74;97.78
10464;BME280;5279;42.048;24.638;2022-11-22T02:10:49;96865.50;;;7.82;95.34
10464;BME280;5279;42.048;24.638;2022-11-22T02:13:18;96872.47;;;7.83;94.73
10464;BME280;5279;42.048;24.638;2022-11-22T02:15:47;96863.97;;;7.89;94.20
10464;BME280;5279;42.048;24.638;2022-11-22T02:18:16;96878.03;;;7.80;95.10
10464;BME280;5279;42.048;24.638;2022-11-22T02:20:43;96868.09;;;7.64;98.21
10464;BME280;5279;42.048;24.638;2022-11-22T02:23:15;96877.13;;;7.61;96.84
10464;BME280;5279;42.048;24.638;2022-11-22T02:25:50;96858.13;;;7.58;97.61
10464;BME280;5279;42.048;24.638;2022-11-22T02:28:17;96859.22;;;7.65;96.81
10464;BME280;5279;42.048;24.638;2022-11-22T02:30:44;96859.28;;;7.36;99.25
10464;BME280;5279;42.048;24.638;2022-11-22T02:33:11;96860.63;;;6.94;100.00
10464;BME280;5279;42.048;24.638;2022-11-22T02:35:38;96858.03;;;6.75;100.00
10464;BME280;5279;42.048;24.638;2022-11-22T02:38:08;96859.38;;;7.07;100.00
10464;BME280;5279;42.048;24.638;2022-11-22T02:40:39;96861.28;;;7.15;100.00
10464;BME280;5279;42.048;24.638;2022-11-22T02:43:10;96868.75;;;7.29;100.00
10464;BME280;5279;42.048;24.638;2022-11-22T02:45:39;96869.56;;;7.30;100.00
10464;BME280;5279;42.048;24.638;2022-11-22T02:48:07;96867.06;;;7.38;100.00
10464;BME280;5279;42.048;24.638;2022-11-22T02:50:35;96868.47;;;7.32;100.00
10464;BME280;5279;42.048;24.638;2022-11-22T02:53:03;96867.84;;;7.48;100.00
10464;BME280;5279;42.048;24.638;2022-11-22T02:55:30;96867.53;;;7.60;100.00
10464;BME280;5279;42.048;24.638;2022-11-22T02:57:57;96873.19;;;7.75;92.98
10464;BME280;5279;42.048;24.638;2022-11-22T03:00:25;96869.91;;;7.91;93.20
10464;BME280;5279;42.048;24.638;2022-11-22T03:02:52;96869.25;;;7.89;95.18
10464;BME280;5279;42.048;24.638;2022-11-22T03:05:19;96885.66;;;7.83;95.07
10464;BME280;5279;42.048;24.638;2022-11-22T03:07:46;96889.53;;;7.79;95.36
10464;BME280;5279;42.048;24.638;2022-11-22T03:10:13;96891.88;;;7.82;95.32
10464;BME280;5279;42.048;24.638;2022-11-22T03:12:40;96884.44;;;7.67;99.06
10464;BME280;5279;42.048;24.638;2022-11-22T03:15:08;96888.91;;;7.57;100.00
10464;BME280;5279;42.048;24.638;2022-11-22T03:17:36;96886.44;;;7.56;100.00
10464;BME280;5279;42.048;24.638;2022-11-22T03:20:03;96891.72;;;7.56;100.00
10464;BME280;5279;42.048;24.638;2022-11-22T03:22:31;96886.06;;;7.41;99.25
10464;BME280;5279;42.048;24.638;2022-11-22T03:24:58;96873.38;;;7.54;94.64
10464;BME280;5279;42.048;24.638;2022-11-22T03:27:24;96883.06;;;7.63;98.03
10464;BME280;5279;42.048;24.638;2022-11-22T03:29:51;96878.66;;;7.54;97.20
10464;BME280;5279;42.048;24.638;2022-11-22T03:32:18;96882.56;;;7.50;95.77
10464;BME280;5279;42.048;24.638;2022-11-22T03:34:47;96891.97;;;7.62;99.83
10464;BME280;5279;42.048;24.638;2022-11-22T03:37:13;96884.63;;;7.56;100.00
10464;BME280;5279;42.048;24.638;2022-11-22T03:39:40;96882.03;;;7.37;99.24
10464;BME280;5279;42.048;24.638;2022-11-22T03:42:07;96886.19;;;7.40;99.50
10464;BME280;5279;42.048;24.638;2022-11-22T03:44:34;96899.78;;;7.45;99.92
10464;BME280;5279;42.048;24.638;2022-11-22T03:47:01;96899.81;;;7.35;99.48
10464;BME280;5279;42.048;24.638;2022-11-22T03:49:28;96897.41;;;7.42;97.49
10464;BME280;5279;42.048;24.638;2022-11-22T03:51:56;96901.41;;;7.55;96.87
10464;BME280;5279;42.048;24.638;2022-11-22T03:54:23;96910.00;;;7.57;96.77
10464;BME280;5279;42.048;24.638;2022-11-22T03:56:50;96908.13;;;7.40;99.14
10464;BME280;5279;42.048;24.638;2022-11-22T03:59:17;96912.84;;;7.37;97.56
10464;BME280;5279;42.048;24.638;2022-11-22T04:01:43;96910.88;;;7.48;96.97
10464;BME280;5279;42.048;24.638;2022-11-22T04:04:10;96926.94;;;7.55;95.54
10464;BME280;5279;42.048;24.638;2022-11-22T04:06:37;96918.66;;;7.40;94.56
10464;BME280;5279;42.048;24.638;2022-11-22T04:09:06;96920.19;;;7.43;93.92
10464;BME280;5279;42.048;24.638;2022-11-22T04:11:33;96912.84;;;7.37;94.56
10464;BME280;5279;42.048;24.638;2022-11-22T04:14:00;96924.50;;;7.34;95.93
10464;BME280;5279;42.048;24.638;2022-11-22T04:16:44;96903.72;;;7.12;94.13
10464;BME280;5279;42.048;24.638;2022-11-22T04:19:11;96922.03;;;7.13;94.60
10464;BME280;5279;42.048;24.638;2022-11-22T04:21:37;96919.78;;;7.19;95.15
10464;BME280;5279;42.048;24.638;2022-11-22T04:24:06;96923.00;;;6.93;97.32
10464;BME280;5279;42.048;24.638;2022-11-22T04:26:52;96923.84;;;6.75;98.59
10464;BME280;5279;42.048;24.638;2022-11-22T04:29:19;96928.97;;;6.86;99.62
10464;BME280;5279;42.048;24.638;2022-11-22T04:31:47;96926.47;;;6.94;96.40
10464;BME280;5279;42.048;24.638;2022-11-22T04:34:34;96933.41;;;6.95;95.35
10464;BME280;5279;42.048;24.638;2022-11-22T04:37:02;96938.94;;;6.92;95.96
10464;BME280;5279;42.048;24.638;2022-11-22T04:39:31;96948.63;;;6.82;97.24
10464;BME280;5279;42.048;24.638;2022-11-22T04:41:58;96956.69;;;6.80;98.60
10464;BME280;5279;42.048;24.638;2022-11-22T04:44:39;96956.94;;;6.77;99.68
10464;BME280;5279;42.048;24.638;2022-11-22T04:47:09;96955.56;;;6.73;100.00
10464;BME280;5279;42.048;24.638;2022-11-22T04:49:36;96946.53;;;6.76;100.00
10464;BME280;5279;42.048;24.638;2022-11-22T04:52:04;96959.44;;;6.79;100.00
10464;BME280;5279;42.048;24.638;2022-11-22T04:54:49;96984.19;;;6.57;99.80
10464;BME280;5279;42.048;24.638;2022-11-22T04:57:16;96985.16;;;6.46;100.00
10464;BME280;5279;42.048;24.638;2022-11-22T04:59:43;96998.13;;;6.38;100.00
10464;BME280;5279;42.048;24.638;2022-11-22T05:02:10;97001.00;;;6.26;100.00
10464;BME280;5279;42.048;24.638;2022-11-22T05:04:37;97001.66;;;6.18;100.00
10464;BME280;5279;42.048;24.638;2022-11-22T05:07:04;97002.44;;;6.09;100.00
10464;BME280;5279;42.048;24.638;2022-11-22T05:09:31;96996.53;;;5.86;100.00
10464;BME280;5279;42.048;24.638;2022-11-22T05:12:02;96996.78;;;5.83;100.00
10464;BME280;5279;42.048;24.638;2022-11-22T05:14:28;97002.59;;;5.87;100.00
10464;BME280;5279;42.048;24.638;2022-11-22T05:16:55;97010.38;;;5.88;100.00
10464;BME280;5279;42.048;24.638;2022-11-22T05:19:22;97017.06;;;6.02;100.00
10464;BME280;5279;42.048;24.638;2022-11-22T05:21:49;97005.78;;;6.11;100.00
10464;BME280;5279;42.048;24.638;2022-11-22T05:24:16;97013.00;;;6.19;100.00
10464;BME280;5279;42.048;24.638;2022-11-22T05:26:42;97018.16;;;6.30;100.00
10464;BME280;5279;42.048;24.638;2022-11-22T05:29:10;97032.25;;;6.49;100.00
10464;BME280;5279;42.048;24.638;2022-11-22T05:31:38;97028.13;;;6.56;100.00
10464;BME280;5279;42.048;24.638;2022-11-22T05:34:05;97029.38;;;6.62;100.00
10464;BME280;5279;42.048;24.638;2022-11-22T05:36:33;97040.91;;;6.71;100.00
10464;BME280;5279;42.048;24.638;2022-11-22T05:39:01;97039.81;;;6.83;100.00
10464;BME280;5279;42.048;24.638;2022-11-22T05:41:28;97042.19;;;6.86;100.00
10464;BME280;5279;42.048;24.638;2022-11-22T05:43:56;97038.38;;;6.69;100.00
10464;BME280;5279;42.048;24.638;2022-11-22T05:46:26;97041.97;;;6.58;100.00
10464;BME280;5279;42.048;24.638;2022-11-22T05:48:55;97030.75;;;6.56;100.00
10464;BME280;5279;42.048;24.638;2022-11-22T05:51:23;97036.44;;;6.62;100.00
10464;BME280;5279;42.048;24.638;2022-11-22T05:53:50;97037.81;;;6.56;100.00
10464;BME280;5279;42.048;24.638;2022-11-22T05:56:19;97031.72;;;6.55;100.00
10464;BME280;5279;42.048;24.638;2022-11-22T05:58:47;97028.66;;;6.50;100.00
10464;BME280;5279;42.048;24.638;2022-11-22T06:01:16;97033.66;;;6.53;100.00
10464;BME280;5279;42.048;24.638;2022-11-22T06:03:45;97032.31;;;6.69;100.00
10464;BME280;5279;42.048;24.638;2022-11-22T06:06:12;97031.97;;;7.02;100.00
10464;BME280;5279;42.048;24.638;2022-11-22T06:08:40;97036.00;;;7.44;97.75
10464;BME280;5279;42.048;24.638;2022-11-22T06:11:14;97045.56;;;7.74;90.93
10464;BME280;5279;42.048;24.638;2022-11-22T06:13:47;97036.22;;;7.99;88.12
10464;BME280;5279;42.048;24.638;2022-11-22T06:16:15;97045.00;;;8.36;86.02
10464;BME280;5279;42.048;24.638;2022-11-22T06:18:49;97034.75;;;8.33;83.06
10464;BME280;5279;42.048;24.638;2022-11-22T06:21:18;97033.50;;;8.64;80.99
10464;BME280;5279;42.048;24.638;2022-11-22T06:23:45;97032.38;;;8.94;77.78
10464;BME280;5279;42.048;24.638;2022-11-22T06:26:13;97051.91;;;9.46;79.21
10464;BME280;5279;42.048;24.638;2022-11-22T06:28:40;97062.41;;;9.38;73.80
10464;BME280;5279;42.048;24.638;2022-11-22T06:31:10;97045.16;;;8.99;74.37
10464;BME280;5279;42.048;24.638;2022-11-22T06:33:37;97073.31;;;8.53;77.33
10464;BME280;5279;42.048;24.638;2022-11-22T06:36:07;97083.69;;;8.64;77.73
10464;BME280;5279;42.048;24.638;2022-11-22T06:38:34;97088.91;;;8.84;74.72
10464;BME280;5279;42.048;24.638;2022-11-22T06:41:02;97077.72;;;9.17;74.24
10464;BME280;5279;42.048;24.638;2022-11-22T06:43:31;97077.16;;;9.58;73.50
10464;BME280;5279;42.048;24.638;2022-11-22T06:45:59;97073.25;;;10.06;70.85
10464;BME280;5279;42.048;24.638;2022-11-22T06:48:28;97073.88;;;10.17;65.29
10464;BME280;5279;42.048;24.638;2022-11-22T06:50:57;97084.06;;;9.95;65.20
10464;BME280;5279;42.048;24.638;2022-11-22T06:53:27;97093.47;;;9.71;66.74
10464;BME280;5279;42.048;24.638;2022-11-22T06:55:59;97106.34;;;9.66;66.15
10464;BME280;5279;42.048;24.638;2022-11-22T06:58:26;97103.00;;;9.64;63.22
10464;BME280;5279;42.048;24.638;2022-11-22T07:00:59;97100.72;;;9.87;62.18
10464;BME280;5279;42.048;24.638;2022-11-22T07:03:26;97092.53;;;10.33;61.52
10464;BME280;5279;42.048;24.638;2022-11-22T07:05:53;97097.84;;;10.67;57.93
10464;BME280;5279;42.048;24.638;2022-11-22T07:08:20;97098.66;;;10.93;61.96
10464;BME280;5279;42.048;24.638;2022-11-22T07:10:48;97091.56;;;11.10;60.65
10464;BME280;5279;42.048;24.638;2022-11-22T07:13:15;97095.47;;;11.32;58.08
10464;BME280;5279;42.048;24.638;2022-11-22T07:15:42;97097.84;;;11.51;55.98
10464;BME280;5279;42.048;24.638;2022-11-22T07:18:09;97094.41;;;11.83;53.63
10464;BME280;5279;42.048;24.638;2022-11-22T07:20:37;97094.94;;;12.19;53.36
10464;BME280;5279;42.048;24.638;2022-11-22T07:23:03;97086.22;;;12.65;51.93
10464;BME280;5279;42.048;24.638;2022-11-22T07:25:30;97068.50;;;13.12;51.28
10464;BME280;5279;42.048;24.638;2022-11-22T07:27:58;97066.38;;;13.61;49.03
10464;BME280;5279;42.048;24.638;2022-11-22T07:30:25;97067.97;;;13.93;46.90
10464;BME280;5279;42.048;24.638;2022-11-22T07:32:52;97057.56;;;14.06;47.08
10464;BME280;5279;42.048;24.638;2022-11-22T07:35:19;97063.72;;;14.44;44.49
10464;BME280;5279;42.048;24.638;2022-11-22T07:37:46;97067.44;;;14.72;43.71
10464;BME280;5279;42.048;24.638;2022-11-22T07:40:14;97048.84;;;14.79;42.35
10464;BME280;5279;42.048;24.638;2022-11-22T07:42:41;97067.50;;;15.08;42.55
10464;BME280;5279;42.048;24.638;2022-11-22T07:45:10;97046.53;;;15.41;41.92
10464;BME280;5279;42.048;24.638;2022-11-22T07:47:37;97055.81;;;15.74;41.56
10464;BME280;5279;42.048;24.638;2022-11-22T07:50:05;97049.31;;;16.05;42.55
10464;BME280;5279;42.048;24.638;2022-11-22T07:52:32;97038.25;;;16.14;40.66
10464;BME280;5279;42.048;24.638;2022-11-22T07:54:59;97034.97;;;16.12;41.66
10464;BME280;5279;42.048;24.638;2022-11-22T07:57:26;97041.25;;;16.26;40.43
10464;BME280;5279;42.048;24.638;2022-11-22T07:59:53;97038.75;;;16.24;39.36
10464;BME280;5279;42.048;24.638;2022-11-22T08:02:21;97038.88;;;16.37;41.01
10464;BME280;5279;42.048;24.638;2022-11-22T08:04:48;97040.38;;;16.47;42.43
10464;BME280;5279;42.048;24.638;2022-11-22T08:07:15;97039.72;;;16.45;43.44
10464;BME280;5279;42.048;24.638;2022-11-22T08:09:42;97032.94;;;16.70;43.62
10464;BME280;5279;42.048;24.638;2022-11-22T08:12:09;97034.91;;;16.89;43.24
10464;BME280;5279;42.048;24.638;2022-11-22T08:14:36;97027.38;;;16.99;43.22
10464;BME280;5279;42.048;24.638;2022-11-22T08:17:03;97040.59;;;17.14;41.86
10464;BME280;5279;42.048;24.638;2022-11-22T08:19:31;97042.22;;;17.08;41.81
10464;BME280;5279;42.048;24.638;2022-11-22T08:22:00;97046.09;;;16.99;41.97
10464;BME280;5279;42.048;24.638;2022-11-22T08:24:27;97046.41;;;17.17;41.69
10464;BME280;5279;42.048;24.638;2022-11-22T08:26:53;97057.69;;;17.60;40.60
10464;BME280;5279;42.048;24.638;2022-11-22T08:29:20;97049.09;;;17.91;39.71
10464;BME280;5279;42.048;24.638;2022-11-22T08:31:47;97031.41;;;18.23;39.50
10464;BME280;5279;42.048;24.638;2022-11-22T08:34:14;97025.81;;;18.37;38.35
10464;BME280;5279;42.048;24.638;2022-11-22T08:36:43;97025.22;;;19.32;37.46
10464;BME280;5279;42.048;24.638;2022-11-22T08:39:09;97035.09;;;19.83;35.75
10464;BME280;5279;42.048;24.638;2022-11-22T08:41:36;97021.28;;;20.04;34.94
10464;BME280;5279;42.048;24.638;2022-11-22T08:44:04;97015.13;;;20.28;35.37
10464;BME280;5279;42.048;24.638;2022-11-22T08:46:31;96993.78;;;20.33;35.14
10464;BME280;5279;42.048;24.638;2022-11-22T08:48:57;97002.78;;;20.45;33.84
10464;BME280;5279;42.048;24.638;2022-11-22T08:51:25;96979.50;;;20.76;33.81
10464;BME280;5279;42.048;24.638;2022-11-22T08:53:53;96972.44;;;20.56;33.93
10464;BME280;5279;42.048;24.638;2022-11-22T08:56:20;96980.69;;;20.12;35.07
10464;BME280;5279;42.048;24.638;2022-11-22T08:58:47;96981.91;;;19.09;36.27
10464;BME280;5279;42.048;24.638;2022-11-22T09:01:15;96989.84;;;19.35;36.12
10464;BME280;5279;42.048;24.638;2022-11-22T09:03:43;96986.38;;;20.71;34.83
10464;BME280;5279;42.048;24.638;2022-11-22T09:06:12;96968.25;;;21.63;32.88
10464;BME280;5279;42.048;24.638;2022-11-22T09:08:39;96972.41;;;22.42;30.98
10464;BME280;5279;42.048;24.638;2022-11-22T09:11:10;96972.00;;;23.19;30.42
10464;BME280;5279;42.048;24.638;2022-11-22T09:13:37;96972.31;;;23.91;29.19
10464;BME280;5279;42.048;24.638;2022-11-22T09:16:06;96954.94;;;24.70;27.62
10464;BME280;5279;42.048;24.638;2022-11-22T09:18:33;96956.63;;;25.58;26.96
10464;BME280;5279;42.048;24.638;2022-11-22T09:21:02;96958.16;;;26.02;26.50
10464;BME280;5279;42.048;24.638;2022-11-22T09:23:29;96957.13;;;25.82;26.23
10464;BME280;5279;42.048;24.638;2022-11-22T09:25:57;96937.78;;;26.74;24.62
10464;BME280;5279;42.048;24.638;2022-11-22T09:28:26;96922.38;;;26.84;25.04
10464;BME280;5279;42.048;24.638;2022-11-22T09:30:57;96921.97;;;27.07;24.08
10464;BME280;5279;42.048;24.638;2022-11-22T09:33:25;96936.66;;;25.96;25.46
10464;BME280;5279;42.048;24.638;2022-11-22T09:35:57;96939.94;;;25.01;26.24
10464;BME280;5279;42.048;24.638;2022-11-22T09:38:24;96945.59;;;24.61;27.29
10464;BME280;5279;42.048;24.638;2022-11-22T09:40:54;96961.56;;;25.61;25.73
10464;BME280;5279;42.048;24.638;2022-11-22T09:43:32;96961.03;;;25.64;25.65
10464;BME280;5279;42.048;24.638;2022-11-22T09:46:21;96972.50;;;25.98;24.90
10464;BME280;5279;42.048;24.638;2022-11-22T09:49:15;96968.84;;;25.39;25.95
10464;BME280;5279;42.048;24.638;2022-11-22T09:51:49;96973.09;;;24.20;27.04
10464;BME280;5279;42.048;24.638;2022-11-22T09:54:23;96959.91;;;22.70;28.47
10464;BME280;5279;42.048;24.638;2022-11-22T09:56:53;96966.53;;;22.56;29.26
10464;BME280;5279;42.048;24.638;2022-11-22T09:59:24;96955.28;;;21.42;31.45
10464;BME280;5279;42.048;24.638;2022-11-22T10:01:58;96953.16;;;20.96;31.96
10464;BME280;5279;42.048;24.638;2022-11-22T10:04:31;96934.25;;;20.66;32.79
10464;BME280;5279;42.048;24.638;2022-11-22T10:07:04;96948.22;;;20.07;33.54
10464;BME280;5279;42.048;24.638;2022-11-22T10:09:40;96939.34;;;20.06;33.75
10464;BME280;5279;42.048;24.638;2022-11-22T10:12:12;96929.03;;;20.03;34.44
10464;BME280;5279;42.048;24.638;2022-11-22T10:14:49;96933.56;;;19.53;35.78
10464;BME280;5279;42.048;24.638;2022-11-22T10:17:26;96934.34;;;19.60;35.83
10464;BME280;5279;42.048;24.638;2022-11-22T10:20:03;96929.59;;;20.12;34.18
10464;BME280;5279;42.048;24.638;2022-11-22T10:22:32;96931.28;;;21.04;34.44
10464;BME280;5279;42.048;24.638;2022-11-22T10:25:01;96915.38;;;22.03;31.63
10464;BME280;5279;42.048;24.638;2022-11-22T10:27:31;96917.72;;;22.58;30.76
10464;BME280;5279;42.048;24.638;2022-11-22T10:30:02;96928.03;;;22.61;30.04
10464;BME280;5279;42.048;24.638;2022-11-22T10:32:35;96914.19;;;21.99;31.27
10464;BME280;5279;42.048;24.638;2022-11-22T10:35:28;96916.78;;;22.17;30.73
10464;BME280;5279;42.048;24.638;2022-11-22T10:38:10;96912.19;;;22.41;30.41
10464;BME280;5279;42.048;24.638;2022-11-22T10:40:47;96921.81;;;22.83;29.84
10464;BME280;5279;42.048;24.638;2022-11-22T10:43:26;96915.16;;;22.40;30.85
10464;BME280;5279;42.048;24.638;2022-11-22T10:46:02;96910.31;;;22.53;30.53
10464;BME280;5279;42.048;24.638;2022-11-22T10:48:39;96907.47;;;22.95;30.08
10464;BME280;5279;42.048;24.638;2022-11-22T10:51:16;96914.44;;;22.32;30.44
10464;BME280;5279;42.048;24.638;2022-11-22T10:53:58;96916.41;;;22.60;30.17
10464;BME280;5279;42.048;24.638;2022-11-22T10:56:32;96903.75;;;22.26;30.65
10464;BME280;5279;42.048;24.638;2022-11-22T11:02:11;96881.34;;;21.49;31.55
10464;BME280;5279;42.048;24.638;2022-11-22T11:04:42;96874.44;;;21.12;32.11
10464;BME280;5279;42.048;24.638;2022-11-22T11:07:13;96868.81;;;20.65;33.77
10464;BME280;5279;42.048;24.638;2022-11-22T11:09:43;96873.66;;;19.96;33.91
10464;BME280;5279;42.048;24.638;2022-11-22T11:12:13;96871.59;;;19.48;35.31
10464;BME280;5279;42.048;24.638;2022-11-22T11:14:45;96879.31;;;18.94;35.85
10464;BME280;5279;42.048;24.638;2022-11-22T11:17:17;96882.41;;;18.40;36.99
10464;BME280;5279;42.048;24.638;2022-11-22T11:19:48;96878.78;;;18.01;38.03
10464;BME280;5279;42.048;24.638;2022-11-22T11:22:20;96859.44;;;17.67;39.11
10464;BME280;5279;42.048;24.638;2022-11-22T11:24:48;96855.66;;;17.15;40.42
10464;BME280;5279;42.048;24.638;2022-11-22T11:27:16;96854.41;;;16.98;41.05
10464;BME280;5279;42.048;24.638;2022-11-22T11:29:45;96845.22;;;16.60;41.82
10464;BME280;5279;42.048;24.638;2022-11-22T11:32:15;96838.09;;;16.32;42.63
10464;BME280;5279;42.048;24.638;2022-11-22T11:34:51;96838.84;;;16.13;42.80
10464;BME280;5279;42.048;24.638;2022-11-22T11:37:22;96849.69;;;15.71;42.82
10464;BME280;5279;42.048;24.638;2022-11-22T11:39:51;96834.13;;;15.81;43.52
10464;BME280;5279;42.048;24.638;2022-11-22T11:42:35;96829.25;;;15.91;43.19
10464;BME280;5279;42.048;24.638;2022-11-22T11:45:25;96817.78;;;15.97;43.25
10464;BME280;5279;42.048;24.638;2022-11-22T11:47:55;96832.63;;;16.06;43.82
10464;BME280;5279;42.048;24.638;2022-11-22T11:50:23;96832.84;;;16.11;43.92
10464;BME280;5279;42.048;24.638;2022-11-22T11:52:53;96830.00;;;16.13;44.17
10464;BME280;5279;42.048;24.638;2022-11-22T11:55:20;96812.22;;;15.92;44.50
10464;BME280;5279;42.048;24.638;2022-11-22T11:57:48;96811.28;;;15.78;45.75
10464;BME280;5279;42.048;24.638;2022-11-22T12:00:20;96820.03;;;15.66;46.73
10464;BME280;5279;42.048;24.638;2022-11-22T12:02:57;96819.81;;;15.61;47.39
10464;BME280;5279;42.048;24.638;2022-11-22T12:05:40;96833.06;;;15.48;47.65
10464;BME280;5279;42.048;24.638;2022-11-22T12:08:27;96838.66;;;15.53;47.59
10464;BME280;5279;42.048;24.638;2022-11-22T12:10:57;96842.66;;;15.21;49.02
10464;BME280;5279;42.048;24.638;2022-11-22T12:13:32;96826.22;;;15.17;49.49
10464;BME280;5279;42.048;24.638;2022-11-22T12:16:12;96804.28;;;15.22;49.67
10464;BME280;5279;42.048;24.638;2022-11-22T12:18:49;96824.28;;;15.32;49.70
10464;BME280;5279;42.048;24.638;2022-11-22T12:21:22;96819.06;;;15.46;48.46
10464;BME280;5279;42.048;24.638;2022-11-22T12:23:57;96800.81;;;15.77;47.50
10464;BME280;5279;42.048;24.638;2022-11-22T12:26:27;96810.63;;;16.04;47.22
10464;BME280;5279;42.048;24.638;2022-11-22T12:28:56;96784.84;;;15.90;48.36
10464;BME280;5279;42.048;24.638;2022-11-22T12:31:28;96770.69;;;15.96;47.65
10464;BME280;5279;42.048;24.638;2022-11-22T12:33:59;96781.63;;;16.01;47.58
10464;BME280;5279;42.048;24.638;2022-11-22T12:36:32;96794.47;;;15.84;48.10
10464;BME280;5279;42.048;24.638;2022-11-22T12:39:03;96797.59;;;15.88;47.80
10464;BME280;5279;42.048;24.638;2022-11-22T12:41:32;96786.81;;;15.75;49.03
10464;BME280;5279;42.048;24.638;2022-11-22T12:44:01;96779.75;;;15.61;48.72
10464;BME280;5279;42.048;24.638;2022-11-22T12:46:32;96770.94;;;15.39;48.52
10464;BME280;5279;42.048;24.638;2022-11-22T12:49:05;96767.81;;;15.01;50.00
10464;BME280;5279;42.048;24.638;2022-11-22T12:51:41;96792.19;;;14.98;49.98
10464;BME280;5279;42.048;24.638;2022-11-22T12:54:13;96784.00;;;14.78;50.00
10464;BME280;5279;42.048;24.638;2022-11-22T12:56:46;96766.53;;;14.55;51.02
10464;BME280;5279;42.048;24.638;2022-11-22T12:59:20;96749.00;;;14.46;52.04
10464;BME280;5279;42.048;24.638;2022-11-22T13:01:58;96755.72;;;14.42;52.42
10464;BME280;5279;42.048;24.638;2022-11-22T13:04:31;96774.50;;;14.34;52.54
10464;BME280;5279;42.048;24.638;2022-11-22T13:07:06;96768.44;;;14.10;53.34
10464;BME280;5279;42.048;24.638;2022-11-22T13:09:40;96765.16;;;14.08;54.08
10464;BME280;5279;42.048;24.638;2022-11-22T13:12:11;96757.50;;;14.20;54.72
10464;BME280;5279;42.048;24.638;2022-11-22T13:14:41;96755.41;;;14.15;53.89
10464;BME280;5279;42.048;24.638;2022-11-22T13:17:11;96741.19;;;14.08;54.85
10464;BME280;5279;42.048;24.638;2022-11-22T13:19:44;96748.41;;;14.14;54.29
10464;BME280;5279;42.048;24.638;2022-11-22T13:22:16;96759.81;;;14.08;53.86